createdAt,value
2023-03-03T00:02:18.046Z,24.00
2023-03-03T00:04:46.441Z,24.70
2023-03-03T00:07:21.859Z,24.40
2023-03-03T00:09:50.950Z,23.50
2023-03-03T00:12:26.861Z,24.50
2023-03-03T00:14:56.285Z,23.10
2023-03-03T00:17:30.754Z,24.00
2023-03-03T00:19:59.817Z,24.50
2023-03-03T00:22:46.281Z,23.00
2023-03-03T00:25:34.922Z,23.70
2023-03-03T00:28:31.443Z,25.00
2023-03-03T00:31:01.631Z,23.30
2023-03-03T00:33:43.796Z,25.40
2023-03-03T00:36:32.012Z,25.70
2023-03-03T00:39:39.466Z,25.30
2023-03-03T00:42:15.605Z,21.90
2023-03-03T00:44:48.810Z,24.40
2023-03-03T00:47:38.577Z,25.40
2023-03-03T00:50:07.491Z,23.60
2023-03-03T00:52:38.469Z,22.90
2023-03-03T00:55:08.077Z,24.50
2023-03-03T00:57:36.449Z,23.60
2023-03-03T01:00:06.208Z,23.10
2023-03-03T01:02:34.650Z,24.10
2023-03-03T01:05:03.077Z,22.90
2023-03-03T01:07:31.180Z,23.70
2023-03-03T01:09:59.640Z,22.80
2023-03-03T01:12:30.912Z,24.20
2023-03-03T01:14:59.785Z,24.30
2023-03-03T01:17:29.732Z,22.10
2023-03-03T01:19:58.469Z,22.30
2023-03-03T01:22:34.180Z,24.70
2023-03-03T01:25:03.898Z,21.70
2023-03-03T01:27:32.358Z,23.60
2023-03-03T01:30:01.128Z,20.30
2023-03-03T01:32:30.424Z,20.80
2023-03-03T01:34:58.812Z,22.50
2023-03-03T01:37:28.282Z,19.50
2023-03-03T01:39:57.379Z,19.00
2023-03-03T01:42:29.507Z,18.60
2023-03-03T01:45:43.912Z,17.20
2023-03-03T01:48:23.417Z,18.30
2023-03-03T01:51:11.055Z,17.40
2023-03-03T01:53:45.323Z,17.40
2023-03-03T01:56:14.370Z,18.20
2023-03-03T01:58:47.267Z,19.70
2023-03-03T02:01:21.197Z,18.60
2023-03-03T02:03:49.605Z,18.10
2023-03-03T02:06:22.751Z,17.30
2023-03-03T02:09:14.865Z,17.00
2023-03-03T02:11:46.014Z,17.00
2023-03-03T02:14:14.707Z,18.30
2023-03-03T02:16:43.431Z,17.30
2023-03-03T02:19:28.990Z,17.40
2023-03-03T02:21:58.519Z,17.40
2023-03-03T02:24:32.318Z,17.10
2023-03-03T02:27:00.790Z,16.30
2023-03-03T02:29:29.307Z,15.20
2023-03-03T02:31:57.556Z,14.90
2023-03-03T02:34:27.093Z,16.00
2023-03-03T02:36:56.003Z,15.70
2023-03-03T02:39:26.974Z,14.60
2023-03-03T02:41:56.235Z,14.20
2023-03-03T02:44:30.693Z,15.80
2023-03-03T02:46:59.713Z,15.50
2023-03-03T02:49:31.147Z,15.90
2023-03-03T02:52:01.036Z,15.20
2023-03-03T02:54:31.263Z,15.00
2023-03-03T02:57:03.821Z,15.00
2023-03-03T02:59:32.085Z,15.90
2023-03-03T03:02:00.835Z,15.10
2023-03-03T03:04:29.426Z,16.60
2023-03-03T03:06:57.753Z,15.00
2023-03-03T03:09:28.483Z,15.60
2023-03-03T03:11:57.122Z,15.80
2023-03-03T03:14:25.368Z,15.20
2023-03-03T03:16:55.406Z,16.00
2023-03-03T03:19:23.943Z,15.70
2023-03-03T03:21:52.820Z,16.80
2023-03-03T03:24:21.209Z,15.70
2023-03-03T03:26:49.552Z,15.50
2023-03-03T03:29:17.729Z,15.20
2023-03-03T03:31:46.142Z,14.80
2023-03-03T03:34:14.478Z,14.60
2023-03-03T03:36:43.421Z,15.50
2023-03-03T03:39:11.938Z,13.30
2023-03-03T03:41:43.253Z,14.30
2023-03-03T03:44:11.777Z,14.20
2023-03-03T03:46:40.256Z,14.40
2023-03-03T03:49:08.573Z,14.10
2023-03-03T03:51:38.482Z,15.10
2023-03-03T03:54:06.588Z,15.70
2023-03-03T03:56:35.117Z,13.80
2023-03-03T03:59:03.802Z,13.80
2023-03-03T04:01:31.901Z,13.10
2023-03-03T04:04:03.361Z,13.00
2023-03-03T04:06:32.468Z,12.90
2023-03-03T04:09:00.756Z,13.90
2023-03-03T04:11:29.050Z,13.10
2023-03-03T04:13:57.618Z,12.70
2023-03-03T04:16:26.429Z,11.60
2023-03-03T04:18:56.313Z,11.90
2023-03-03T04:21:25.519Z,12.30
2023-03-03T04:27:57.090Z,10.90
2023-03-03T04:34:27.697Z,12.10
2023-03-03T04:36:56.986Z,12.80
2023-03-03T04:39:25.475Z,12.70
2023-03-03T04:41:53.564Z,13.30
2023-03-03T04:44:22.642Z,13.20
2023-03-03T04:46:51.058Z,13.20
2023-03-03T04:49:19.690Z,13.70
2023-03-03T04:51:47.970Z,13.80
2023-03-03T04:54:16.157Z,14.20
2023-03-03T04:56:44.677Z,15.00
2023-03-03T04:59:12.977Z,15.00
2023-03-03T05:01:41.315Z,16.70
2023-03-03T05:04:10.088Z,15.00
2023-03-03T05:06:38.483Z,17.10
2023-03-03T05:09:06.924Z,17.50
2023-03-03T05:11:36.949Z,17.30
2023-03-03T05:14:05.183Z,17.40
2023-03-03T05:16:34.147Z,17.30
2023-03-03T05:19:02.208Z,19.30
2023-03-03T05:21:30.563Z,19.50
2023-03-03T05:23:58.753Z,19.00
2023-03-03T05:26:27.097Z,18.40
2023-03-03T05:28:55.248Z,18.00
2023-03-03T05:31:24.184Z,17.80
2023-03-03T05:33:52.220Z,17.90
2023-03-03T05:36:20.747Z,16.00
2023-03-03T05:38:48.979Z,17.70
2023-03-03T05:41:17.652Z,15.40
2023-03-03T05:43:46.286Z,14.20
2023-03-03T05:46:14.746Z,13.80
2023-03-03T05:48:43.846Z,12.10
2023-03-03T05:51:12.320Z,12.80
2023-03-03T05:53:40.691Z,12.90
2023-03-03T05:56:09.317Z,13.30
2023-03-03T05:58:37.661Z,12.30
2023-03-03T06:01:06.199Z,12.60
2023-03-03T06:03:34.645Z,12.30
2023-03-03T06:06:03.235Z,13.00
2023-03-03T06:08:33.040Z,12.40
2023-03-03T06:11:01.592Z,12.10
2023-03-03T06:13:32.615Z,13.50
2023-03-03T06:16:00.903Z,15.20
2023-03-03T06:18:29.368Z,16.10
2023-03-03T06:20:57.951Z,14.90
2023-03-03T06:23:26.203Z,14.60
2023-03-03T06:25:54.816Z,15.80
2023-03-03T06:28:23.408Z,16.70
2023-03-03T06:30:55.682Z,15.30
2023-03-03T06:33:24.592Z,15.20
2023-03-03T06:35:54.935Z,14.00
2023-03-03T06:38:23.160Z,13.00
2023-03-03T06:40:51.727Z,13.60
2023-03-03T06:43:23.354Z,13.50
2023-03-03T06:45:52.055Z,13.60
2023-03-03T06:48:20.208Z,13.30
2023-03-03T06:50:48.665Z,13.30
2023-03-03T06:53:18.669Z,12.90
2023-03-03T06:55:47.167Z,13.80
2023-03-03T06:58:17.922Z,15.10
2023-03-03T07:00:58.984Z,14.40
2023-03-03T07:03:35.182Z,12.80
2023-03-03T07:06:15.075Z,13.50
2023-03-03T07:08:43.558Z,13.90
2023-03-03T07:11:16.203Z,13.40
2023-03-03T07:13:49.324Z,14.50
2023-03-03T07:16:25.134Z,15.70
2023-03-03T07:19:01.327Z,14.30
2023-03-03T07:21:38.214Z,13.00
2023-03-03T07:24:29.324Z,13.10
2023-03-03T07:27:06.710Z,13.70
2023-03-03T07:29:35.960Z,13.10
2023-03-03T07:32:13.939Z,13.90
2023-03-03T07:34:48.257Z,14.40
2023-03-03T07:37:39.020Z,15.00
2023-03-03T07:40:34.053Z,14.50
2023-03-03T07:43:17.660Z,16.80
2023-03-03T07:45:48.103Z,16.60
2023-03-03T07:48:24.756Z,17.40
2023-03-03T07:50:53.115Z,18.50
2023-03-03T07:53:35.139Z,18.90
2023-03-03T07:56:12.528Z,20.00
2023-03-03T07:58:42.299Z,19.90
2023-03-03T08:01:40.036Z,18.80
2023-03-03T08:04:30.432Z,23.00
2023-03-03T08:07:02.000Z,19.60
2023-03-03T08:09:45.058Z,19.00
2023-03-03T08:12:43.041Z,21.10
2023-03-03T08:15:20.562Z,18.10
2023-03-03T08:17:50.172Z,17.30
2023-03-03T08:20:44.994Z,17.90
2023-03-03T08:23:15.433Z,18.70
2023-03-03T08:25:44.919Z,19.50
2023-03-03T08:28:14.478Z,16.00
2023-03-03T08:30:44.062Z,17.70
2023-03-03T08:33:15.932Z,16.80
2023-03-03T08:35:45.185Z,13.30
2023-03-03T08:38:16.193Z,11.70
2023-03-03T08:40:45.674Z,10.10
2023-03-03T08:43:17.416Z,9.90
2023-03-03T08:45:47.315Z,10.70
2023-03-03T08:48:16.652Z,10.00
2023-03-03T08:50:45.973Z,11.00
2023-03-03T08:53:18.603Z,11.80
2023-03-03T08:55:50.589Z,12.80
2023-03-03T08:58:21.233Z,12.60
2023-03-03T09:00:52.115Z,14.10
2023-03-03T09:03:20.544Z,14.90
2023-03-03T09:05:48.751Z,13.80
2023-03-03T09:08:18.053Z,12.40
2023-03-03T09:10:46.545Z,11.70
2023-03-03T09:13:19.895Z,10.70
2023-03-03T09:15:49.395Z,9.60
2023-03-03T09:18:21.952Z,9.50
2023-03-03T09:20:52.255Z,10.40
2023-03-03T09:23:48.632Z,10.80
2023-03-03T09:26:32.467Z,10.90
2023-03-03T09:29:09.834Z,9.90
2023-03-03T09:31:46.801Z,10.90
2023-03-03T09:34:37.069Z,11.50
2023-03-03T09:37:26.950Z,9.10
2023-03-03T09:40:00.807Z,8.90
2023-03-03T09:42:43.180Z,8.90
2023-03-03T09:45:15.585Z,9.80
2023-03-03T09:48:09.527Z,11.00
2023-03-03T09:50:55.311Z,10.10
2023-03-03T09:54:01.399Z,9.30
2023-03-03T09:56:38.275Z,9.60
2023-03-03T09:59:30.952Z,9.00
2023-03-03T10:02:30.196Z,9.00
2023-03-03T10:05:14.412Z,9.30
2023-03-03T10:07:57.590Z,8.10
2023-03-03T10:10:46.189Z,11.60
2023-03-03T10:13:36.102Z,9.50
2023-03-03T10:16:22.358Z,8.10
2023-03-03T10:19:03.923Z,8.70
2023-03-03T10:21:37.282Z,9.40
2023-03-03T10:24:32.146Z,9.20
2023-03-03T10:27:15.489Z,9.90
2023-03-03T10:30:08.567Z,10.10
2023-03-03T10:33:13.434Z,10.80
2023-03-03T10:36:00.926Z,10.60
2023-03-03T10:38:58.662Z,11.00
2023-03-03T10:41:52.249Z,10.40
2023-03-03T10:44:57.992Z,11.30
2023-03-03T10:47:45.961Z,11.20
2023-03-03T10:51:01.548Z,11.60
2023-03-03T10:54:11.561Z,11.30
2023-03-03T10:56:52.192Z,11.50
2023-03-03T10:59:37.315Z,10.70
2023-03-03T11:02:33.180Z,11.60
2023-03-03T11:05:30.233Z,10.00
2023-03-03T11:08:24.642Z,10.30
2023-03-03T11:11:14.840Z,10.70
2023-03-03T11:14:13.567Z,11.20
2023-03-03T11:17:01.519Z,12.00
2023-03-03T11:20:11.096Z,10.60
2023-03-03T11:23:00.325Z,11.60
2023-03-03T11:25:44.225Z,11.70
2023-03-03T11:28:15.605Z,11.20
2023-03-03T11:30:46.725Z,10.60
2023-03-03T11:33:46.427Z,11.80
2023-03-03T11:36:34.905Z,12.70
2023-03-03T11:39:09.416Z,10.40
2023-03-03T11:41:53.572Z,10.90
2023-03-03T11:44:44.406Z,10.80
2023-03-03T11:47:26.507Z,11.30
2023-03-03T11:50:12.247Z,10.80
2023-03-03T11:53:00.343Z,10.90
2023-03-03T11:55:37.839Z,10.50
2023-03-03T11:58:25.340Z,9.60
2023-03-03T12:01:26.360Z,10.70
2023-03-03T12:04:19.476Z,12.00
2023-03-03T12:07:16.815Z,11.20
2023-03-03T12:10:02.256Z,11.80
2023-03-03T12:12:30.555Z,11.90
2023-03-03T12:15:19.770Z,12.10
2023-03-03T12:18:09.265Z,11.60
2023-03-03T12:20:52.461Z,11.70
2023-03-03T12:23:43.629Z,11.20
2023-03-03T12:26:32.402Z,10.80
2023-03-03T12:29:30.533Z,10.40
2023-03-03T12:32:23.210Z,9.40
2023-03-03T12:34:58.795Z,10.50
2023-03-03T12:37:48.639Z,10.60
2023-03-03T12:40:28.000Z,12.50
2023-03-03T12:43:19.763Z,11.40
2023-03-03T12:46:03.608Z,11.40
2023-03-03T12:48:45.375Z,11.20
2023-03-03T12:51:39.593Z,10.90
2023-03-03T12:54:25.885Z,11.40
2023-03-03T12:57:11.610Z,11.30
2023-03-03T13:00:02.812Z,9.60
2023-03-03T13:02:59.504Z,10.90
2023-03-03T13:05:56.660Z,11.50
2023-03-03T13:08:49.449Z,11.70
2023-03-03T13:11:48.830Z,11.20
2023-03-03T13:14:32.367Z,9.60
2023-03-03T13:17:24.832Z,10.30
2023-03-03T13:20:00.657Z,10.20
2023-03-03T13:22:41.618Z,9.80
2023-03-03T13:25:31.122Z,9.20
2023-03-03T13:28:14.353Z,9.60
2023-03-03T13:30:49.981Z,10.20
2023-03-03T13:33:29.054Z,11.10
2023-03-03T13:36:02.789Z,11.30
2023-03-03T13:38:42.347Z,10.20
2023-03-03T13:41:49.979Z,10.40
2023-03-03T13:44:26.273Z,9.90
2023-03-03T13:47:09.259Z,10.90
2023-03-03T13:50:01.628Z,10.40
2023-03-03T13:52:34.335Z,10.10
2023-03-03T13:55:29.694Z,10.40
2023-03-03T13:58:23.106Z,10.30
2023-03-03T14:01:22.286Z,11.30
2023-03-03T14:04:29.316Z,11.60
2023-03-03T14:07:04.334Z,10.50
2023-03-03T14:09:53.578Z,11.30
2023-03-03T14:12:36.514Z,10.90
2023-03-03T14:15:31.077Z,10.40
2023-03-03T14:18:10.152Z,9.60
2023-03-03T14:20:44.354Z,9.90
2023-03-03T14:23:42.826Z,10.50
2023-03-03T14:26:12.499Z,9.90
2023-03-03T14:28:46.602Z,10.20
2023-03-03T14:31:26.789Z,11.80
2023-03-03T14:34:11.774Z,9.50
2023-03-03T14:36:43.446Z,10.90
2023-03-03T14:39:37.929Z,11.40
2023-03-03T14:42:13.163Z,9.90
2023-03-03T14:44:47.490Z,10.60
2023-03-03T14:47:27.400Z,10.40
2023-03-03T14:50:03.277Z,9.90
2023-03-03T14:52:34.518Z,10.40
2023-03-03T14:55:32.316Z,9.80
2023-03-03T14:58:01.745Z,9.80
2023-03-03T15:00:36.239Z,10.00
2023-03-03T15:03:21.589Z,10.20
2023-03-03T15:05:52.136Z,10.20
2023-03-03T15:08:32.147Z,9.50
2023-03-03T15:11:20.419Z,9.90
2023-03-03T15:13:49.402Z,9.70
2023-03-03T15:16:23.023Z,10.40
2023-03-03T15:19:28.724Z,10.70
2023-03-03T15:22:08.555Z,10.60
2023-03-03T15:24:48.059Z,10.10
2023-03-03T15:27:25.650Z,11.10
2023-03-03T15:30:24.745Z,10.10
2023-03-03T15:33:34.816Z,11.10
2023-03-03T15:36:47.985Z,11.90
2023-03-03T15:39:37.583Z,10.80
2023-03-03T15:42:36.126Z,10.50
2023-03-03T15:45:33.981Z,9.70
2023-03-03T15:48:42.843Z,9.90
2023-03-03T15:52:01.177Z,11.10
2023-03-03T15:54:59.208Z,10.20
2023-03-03T15:58:07.792Z,10.60
2023-03-03T16:00:48.170Z,10.50
2023-03-03T16:03:32.120Z,10.50
2023-03-03T16:06:19.923Z,10.60
2023-03-03T16:09:23.817Z,11.30
2023-03-03T16:12:16.896Z,11.70
2023-03-03T16:14:57.768Z,11.60
2023-03-03T16:17:57.641Z,12.40
2023-03-03T16:20:47.214Z,11.50
2023-03-03T16:23:25.146Z,11.10
2023-03-03T16:26:05.559Z,11.50
2023-03-03T16:28:54.326Z,10.70
2023-03-03T16:31:29.810Z,12.20
2023-03-03T16:34:20.612Z,11.50
2023-03-03T16:37:09.199Z,12.50
2023-03-03T16:39:43.124Z,11.90
2023-03-03T16:42:24.022Z,11.50
2023-03-03T16:45:09.212Z,12.20
2023-03-03T16:47:59.427Z,11.90
2023-03-03T16:50:36.914Z,12.60
2023-03-03T16:53:27.954Z,13.20
2023-03-03T16:56:22.228Z,14.50
2023-03-03T16:59:18.090Z,13.80
2023-03-03T17:02:18.246Z,14.80
2023-03-03T17:04:59.544Z,16.30
2023-03-03T17:07:49.654Z,16.10
2023-03-03T17:10:32.998Z,17.60
2023-03-03T17:13:23.363Z,16.70
2023-03-03T17:16:14.425Z,18.30
2023-03-03T17:19:13.613Z,16.60
2023-03-03T17:21:47.730Z,18.70
2023-03-03T17:24:48.035Z,18.20
2023-03-03T17:27:39.547Z,16.40
2023-03-03T17:30:22.391Z,17.50
2023-03-03T17:33:00.480Z,18.00
2023-03-03T17:35:54.970Z,17.40
2023-03-03T17:38:41.792Z,15.70
2023-03-03T17:41:18.319Z,14.70
2023-03-03T17:44:08.419Z,16.60
2023-03-03T17:46:48.041Z,15.50
2023-03-03T17:49:40.704Z,26.60
2023-03-03T17:52:28.850Z,15.80
2023-03-03T17:55:19.044Z,15.70
2023-03-03T17:58:14.535Z,15.60
2023-03-03T18:00:43.705Z,15.50
2023-03-03T18:03:30.032Z,14.60
2023-03-03T18:06:17.211Z,14.60
2023-03-03T18:09:15.259Z,13.60
2023-03-03T18:11:53.161Z,13.90
2023-03-03T18:14:59.496Z,15.70
2023-03-03T18:17:43.426Z,14.80
2023-03-03T18:20:51.027Z,16.20
2023-03-03T18:23:35.845Z,15.20
2023-03-03T18:26:32.778Z,14.60
2023-03-03T18:29:25.216Z,16.40
2023-03-03T18:31:53.680Z,14.90
2023-03-03T18:34:44.367Z,15.70
2023-03-03T18:37:33.061Z,16.50
2023-03-03T18:40:04.310Z,16.00
2023-03-03T18:42:40.578Z,15.20
2023-03-03T18:45:23.060Z,17.20
2023-03-03T18:48:13.968Z,16.60
2023-03-03T18:50:47.983Z,15.60
2023-03-03T18:53:27.368Z,17.00
2023-03-03T18:56:01.149Z,17.90
2023-03-03T18:58:36.182Z,16.00
2023-03-03T19:01:23.254Z,15.00
2023-03-03T19:03:51.682Z,15.90
2023-03-03T19:06:38.511Z,16.30
2023-03-03T19:09:12.707Z,16.80
2023-03-03T19:11:51.666Z,15.50
2023-03-03T19:14:29.888Z,15.30
2023-03-03T19:17:19.360Z,14.10
2023-03-03T19:20:09.461Z,15.00
2023-03-03T19:23:04.757Z,16.40
2023-03-03T19:25:33.174Z,14.70
2023-03-03T19:28:17.830Z,15.40
2023-03-03T19:31:17.820Z,16.30
2023-03-03T19:33:55.744Z,16.70
2023-03-03T19:36:45.497Z,15.70
2023-03-03T19:39:23.096Z,14.80
2023-03-03T19:41:51.346Z,16.50
2023-03-03T19:44:29.823Z,18.20
2023-03-03T19:47:10.916Z,18.70
2023-03-03T19:49:58.436Z,18.00
2023-03-03T19:53:02.005Z,17.60
2023-03-03T19:56:00.463Z,17.80
2023-03-03T19:58:55.898Z,18.00
2023-03-03T20:01:32.073Z,17.90
2023-03-03T20:04:26.872Z,16.80
2023-03-03T20:07:31.833Z,17.80
2023-03-03T20:10:24.924Z,16.20
2023-03-03T20:13:07.104Z,16.60
2023-03-03T20:15:49.516Z,16.50
2023-03-03T20:18:44.580Z,18.00
2023-03-03T20:21:24.124Z,18.10
2023-03-03T20:24:28.549Z,17.20
2023-03-03T20:27:18.789Z,17.50
2023-03-03T20:30:25.489Z,16.50
2023-03-03T20:33:12.540Z,17.70
2023-03-03T20:35:50.438Z,17.50
2023-03-03T20:38:33.720Z,16.80
2023-03-03T20:41:01.872Z,17.70
2023-03-03T20:43:36.259Z,17.00
2023-03-03T20:46:18.199Z,17.00
2023-03-03T20:48:49.013Z,17.90
2023-03-03T20:51:56.012Z,18.00
2023-03-03T20:54:36.928Z,18.00
2023-03-03T20:57:34.224Z,16.90
2023-03-03T21:00:19.231Z,17.90
2023-03-03T21:02:55.910Z,18.10
2023-03-03T21:05:24.368Z,16.70
2023-03-03T21:08:05.745Z,17.40
2023-03-03T21:10:36.690Z,18.10
2023-03-03T21:13:40.403Z,17.30
2023-03-03T21:16:21.125Z,16.50
2023-03-03T21:19:06.756Z,16.10
2023-03-03T21:21:38.385Z,18.90
2023-03-03T21:24:09.069Z,17.70
2023-03-03T21:26:58.415Z,17.40
2023-03-03T21:29:35.420Z,16.90
2023-03-03T21:32:07.696Z,17.70
2023-03-03T21:34:42.422Z,18.50
2023-03-03T21:37:12.656Z,17.40
2023-03-03T21:39:44.236Z,17.70
2023-03-03T21:42:29.383Z,18.70
2023-03-03T21:44:57.651Z,17.80
2023-03-03T21:47:29.722Z,19.60
2023-03-03T21:49:58.167Z,19.00
2023-03-03T21:52:27.717Z,18.00
2023-03-03T21:54:56.717Z,18.10
2023-03-03T21:57:26.023Z,19.50
2023-03-03T21:59:58.038Z,19.80
2023-03-03T22:02:26.793Z,18.30
2023-03-03T22:04:55.013Z,16.80
2023-03-03T22:07:23.844Z,17.90
2023-03-03T22:09:52.176Z,18.80
2023-03-03T22:12:20.407Z,18.70
2023-03-03T22:14:49.629Z,16.60
2023-03-03T22:17:17.793Z,16.70
2023-03-03T22:19:46.242Z,18.40
2023-03-03T22:22:14.725Z,19.20
2023-03-03T22:24:43.397Z,19.50
2023-03-03T22:27:12.426Z,19.40
2023-03-03T22:29:40.640Z,18.20
2023-03-03T22:32:09.306Z,17.50
2023-03-03T22:34:38.154Z,18.50
2023-03-03T22:37:06.390Z,19.20
2023-03-03T22:39:34.590Z,17.70
2023-03-03T22:42:03.082Z,17.80
2023-03-03T22:44:31.615Z,17.80
2023-03-03T22:47:00.630Z,18.30
2023-03-03T22:49:29.538Z,17.50
2023-03-03T22:51:59.129Z,18.80
2023-03-03T22:54:27.529Z,18.50
2023-03-03T22:56:56.201Z,17.40
2023-03-03T22:59:24.858Z,18.50
2023-03-03T23:01:53.199Z,19.50
2023-03-03T23:04:21.809Z,19.60
2023-03-03T23:06:50.374Z,18.00
2023-03-03T23:09:18.955Z,18.20
2023-03-03T23:11:47.921Z,17.40
2023-03-03T23:14:16.282Z,18.20
2023-03-03T23:16:46.145Z,17.70
2023-03-03T23:19:15.067Z,18.30
2023-03-03T23:21:43.932Z,16.90
2023-03-03T23:24:12.742Z,18.30
2023-03-03T23:26:41.070Z,18.10
2023-03-03T23:29:09.428Z,17.20
2023-03-03T23:31:38.261Z,18.00
2023-03-03T23:34:06.869Z,16.80
2023-03-03T23:36:35.168Z,18.20
2023-03-03T23:39:04.175Z,17.90
2023-03-03T23:41:33.166Z,16.40
2023-03-03T23:44:01.959Z,16.20
2023-03-03T23:46:30.336Z,14.70
2023-03-03T23:49:00.125Z,16.60
2023-03-03T23:51:28.641Z,16.40
2023-03-03T23:53:57.510Z,16.90
2023-03-03T23:56:26.396Z,15.40
2023-03-03T23:58:54.886Z,15.20
